sensor_id;sensor_type;location;lat;lon;timestamp;P1;durP1;ratioP1;P2;durP2;ratioP2
75220;SDS011;63802;53.232;6.570;2023-11-21T00:01:13;21.75;;;4.35;;
75220;SDS011;63802;53.232;6.570;2023-11-21T00:03:43;17.13;;;4.82;;
75220;SDS011;63802;53.232;6.570;2023-11-21T00:06:12;16.27;;;5.00;;
75220;SDS011;63802;53.232;6.570;2023-11-21T00:08:37;25.27;;;4.85;;
75220;SDS011;63802;53.232;6.570;2023-11-21T00:11:03;18.52;;;4.10;;
75220;SDS011;63802;53.232;6.570;2023-11-21T00:13:31;17.90;;;4.72;;
75220;SDS011;63802;53.232;6.570;2023-11-21T00:15:57;21.08;;;4.53;;
75220;SDS011;63802;53.232;6.570;2023-11-21T00:18:22;18.83;;;5.15;;
75220;SDS011;63802;53.232;6.570;2023-11-21T00:20:48;20.25;;;4.28;;
75220;SDS011;63802;53.232;6.570;2023-11-21T00:23:20;17.85;;;4.20;;
75220;SDS011;63802;53.232;6.570;2023-11-21T00:25:48;32.47;;;5.47;;
75220;SDS011;63802;53.232;6.570;2023-11-21T00:28:14;23.17;;;4.82;;
75220;SDS011;63802;53.232;6.570;2023-11-21T00:30:43;14.80;;;4.75;;
75220;SDS011;63802;53.232;6.570;2023-11-21T00:33:09;23.63;;;4.93;;
75220;SDS011;63802;53.232;6.570;2023-11-21T00:35:34;18.77;;;4.50;;
75220;SDS011;63802;53.232;6.570;2023-11-21T00:38:02;21.45;;;4.85;;
75220;SDS011;63802;53.232;6.570;2023-11-21T00:40:28;32.08;;;4.80;;
75220;SDS011;63802;53.232;6.570;2023-11-21T00:42:54;17.63;;;4.43;;
75220;SDS011;63802;53.232;6.570;2023-11-21T00:45:21;22.67;;;5.15;;
75220;SDS011;63802;53.232;6.570;2023-11-21T00:47:54;21.10;;;5.10;;
75220;SDS011;63802;53.232;6.570;2023-11-21T00:50:21;29.90;;;5.75;;
75220;SDS011;63802;53.232;6.570;2023-11-21T00:52:46;22.55;;;5.05;;
75220;SDS011;63802;53.232;6.570;2023-11-21T00:55:22;26.98;;;5.47;;
75220;SDS011;63802;53.232;6.570;2023-11-21T00:57:48;26.15;;;5.68;;
75220;SDS011;63802;53.232;6.570;2023-11-21T01:00:13;19.80;;;6.18;;
75220;SDS011;63802;53.232;6.570;2023-11-21T01:02:42;23.65;;;6.18;;
75220;SDS011;63802;53.232;6.570;2023-11-21T01:05:12;21.02;;;5.65;;
75220;SDS011;63802;53.232;6.570;2023-11-21T01:07:38;23.85;;;5.65;;
75220;SDS011;63802;53.232;6.570;2023-11-21T01:10:03;22.90;;;5.20;;
75220;SDS011;63802;53.232;6.570;2023-11-21T01:12:37;20.02;;;5.50;;
75220;SDS011;63802;53.232;6.570;2023-11-21T01:15:04;22.00;;;6.47;;
75220;SDS011;63802;53.232;6.570;2023-11-21T01:17:33;25.13;;;6.55;;
75220;SDS011;63802;53.232;6.570;2023-11-21T01:19:59;33.67;;;6.78;;
75220;SDS011;63802;53.232;6.570;2023-11-21T01:22:26;24.65;;;5.75;;
75220;SDS011;63802;53.232;6.570;2023-11-21T01:24:52;26.80;;;6.25;;
75220;SDS011;63802;53.232;6.570;2023-11-21T01:27:18;20.60;;;6.10;;
75220;SDS011;63802;53.232;6.570;2023-11-21T01:29:44;15.73;;;5.25;;
75220;SDS011;63802;53.232;6.570;2023-11-21T01:32:15;24.90;;;6.50;;
75220;SDS011;63802;53.232;6.570;2023-11-21T01:34:41;29.70;;;6.90;;
75220;SDS011;63802;53.232;6.570;2023-11-21T01:37:06;28.38;;;7.05;;
75220;SDS011;63802;53.232;6.570;2023-11-21T01:39:35;23.45;;;6.85;;
75220;SDS011;63802;53.232;6.570;2023-11-21T01:42:04;34.60;;;7.07;;
75220;SDS011;63802;53.232;6.570;2023-11-21T01:44:30;29.92;;;6.90;;
75220;SDS011;63802;53.232;6.570;2023-11-21T01:46:55;38.88;;;7.82;;
75220;SDS011;63802;53.232;6.570;2023-11-21T01:49:22;30.10;;;6.85;;
75220;SDS011;63802;53.232;6.570;2023-11-21T01:51:49;29.23;;;7.15;;
75220;SDS011;63802;53.232;6.570;2023-11-21T01:54:20;23.30;;;7.25;;
75220;SDS011;63802;53.232;6.570;2023-11-21T01:56:46;28.17;;;8.02;;
75220;SDS011;63802;53.232;6.570;2023-11-21T01:59:12;26.63;;;7.75;;
75220;SDS011;63802;53.232;6.570;2023-11-21T02:01:43;23.98;;;6.50;;
75220;SDS011;63802;53.232;6.570;2023-11-21T02:04:08;21.88;;;7.15;;
75220;SDS011;63802;53.232;6.570;2023-11-21T02:06:34;23.70;;;7.22;;
75220;SDS011;63802;53.232;6.570;2023-11-21T02:09:00;33.03;;;7.57;;
75220;SDS011;63802;53.232;6.570;2023-11-21T02:11:25;27.42;;;7.15;;
75220;SDS011;63802;53.232;6.570;2023-11-21T02:13:52;26.60;;;7.47;;
75220;SDS011;63802;53.232;6.570;2023-11-21T02:16:19;25.13;;;7.68;;
75220;SDS011;63802;53.232;6.570;2023-11-21T02:18:46;28.50;;;7.68;;
75220;SDS011;63802;53.232;6.570;2023-11-21T02:21:13;35.63;;;7.43;;
75220;SDS011;63802;53.232;6.570;2023-11-21T02:23:39;32.83;;;7.10;;
75220;SDS011;63802;53.232;6.570;2023-11-21T02:26:09;29.25;;;7.53;;
75220;SDS011;63802;53.232;6.570;2023-11-21T02:28:35;22.98;;;7.05;;
75220;SDS011;63802;53.232;6.570;2023-11-21T02:31:01;31.42;;;8.85;;
75220;SDS011;63802;53.232;6.570;2023-11-21T02:33:28;25.30;;;7.22;;
75220;SDS011;63802;53.232;6.570;2023-11-21T02:35:53;26.40;;;8.23;;
75220;SDS011;63802;53.232;6.570;2023-11-21T02:38:20;21.35;;;7.35;;
75220;SDS011;63802;53.232;6.570;2023-11-21T02:40:46;25.13;;;7.38;;
75220;SDS011;63802;53.232;6.570;2023-11-21T02:43:12;28.08;;;8.57;;
75220;SDS011;63802;53.232;6.570;2023-11-21T02:45:37;31.00;;;8.55;;
75220;SDS011;63802;53.232;6.570;2023-11-21T02:48:02;35.47;;;8.05;;
75220;SDS011;63802;53.232;6.570;2023-11-21T02:50:29;25.83;;;7.85;;
75220;SDS011;63802;53.232;6.570;2023-11-21T02:52:55;32.30;;;8.25;;
75220;SDS011;63802;53.232;6.570;2023-11-21T02:55:22;24.38;;;7.97;;
75220;SDS011;63802;53.232;6.570;2023-11-21T02:57:49;21.88;;;7.13;;
75220;SDS011;63802;53.232;6.570;2023-11-21T03:00:16;23.70;;;7.97;;
75220;SDS011;63802;53.232;6.570;2023-11-21T03:02:42;30.33;;;7.38;;
75220;SDS011;63802;53.232;6.570;2023-11-21T03:05:08;33.10;;;8.07;;
75220;SDS011;63802;53.232;6.570;2023-11-21T03:07:35;28.33;;;7.35;;
75220;SDS011;63802;53.232;6.570;2023-11-21T03:10:02;39.90;;;7.72;;
75220;SDS011;63802;53.232;6.570;2023-11-21T03:12:30;37.83;;;8.18;;
75220;SDS011;63802;53.232;6.570;2023-11-21T03:14:56;28.33;;;7.55;;
75220;SDS011;63802;53.232;6.570;2023-11-21T03:17:21;37.78;;;8.40;;
75220;SDS011;63802;53.232;6.570;2023-11-21T03:19:47;27.83;;;7.80;;
75220;SDS011;63802;53.232;6.570;2023-11-21T03:22:12;34.65;;;8.32;;
75220;SDS011;63802;53.232;6.570;2023-11-21T03:24:38;35.92;;;7.78;;
75220;SDS011;63802;53.232;6.570;2023-11-21T03:27:03;32.20;;;8.32;;
75220;SDS011;63802;53.232;6.570;2023-11-21T03:29:29;31.80;;;8.00;;
75220;SDS011;63802;53.232;6.570;2023-11-21T03:31:55;32.88;;;7.47;;
75220;SDS011;63802;53.232;6.570;2023-11-21T03:34:23;34.72;;;8.35;;
75220;SDS011;63802;53.232;6.570;2023-11-21T03:36:51;27.25;;;7.75;;
75220;SDS011;63802;53.232;6.570;2023-11-21T03:39:18;31.05;;;7.45;;
75220;SDS011;63802;53.232;6.570;2023-11-21T03:41:45;22.10;;;7.82;;
75220;SDS011;63802;53.232;6.570;2023-11-21T03:44:10;26.15;;;7.88;;
75220;SDS011;63802;53.232;6.570;2023-11-21T03:46:36;31.60;;;8.18;;
75220;SDS011;63802;53.232;6.570;2023-11-21T03:49:01;27.48;;;7.50;;
75220;SDS011;63802;53.232;6.570;2023-11-21T03:51:27;27.90;;;7.85;;
75220;SDS011;63802;53.232;6.570;2023-11-21T03:53:52;30.55;;;7.82;;
75220;SDS011;63802;53.232;6.570;2023-11-21T03:56:18;24.40;;;7.32;;
75220;SDS011;63802;53.232;6.570;2023-11-21T03:58:46;28.17;;;7.82;;
75220;SDS011;63802;53.232;6.570;2023-11-21T04:01:18;28.23;;;8.10;;
75220;SDS011;63802;53.232;6.570;2023-11-21T04:03:45;35.75;;;8.63;;
75220;SDS011;63802;53.232;6.570;2023-11-21T04:06:11;24.98;;;7.95;;
75220;SDS011;63802;53.232;6.570;2023-11-21T04:08:36;32.55;;;8.48;;
75220;SDS011;63802;53.232;6.570;2023-11-21T04:11:02;34.58;;;8.50;;
75220;SDS011;63802;53.232;6.570;2023-11-21T04:13:27;33.00;;;8.07;;
75220;SDS011;63802;53.232;6.570;2023-11-21T04:15:53;30.25;;;8.82;;
75220;SDS011;63802;53.232;6.570;2023-11-21T04:18:18;33.75;;;9.05;;
75220;SDS011;63802;53.232;6.570;2023-11-21T04:20:44;33.15;;;8.13;;
75220;SDS011;63802;53.232;6.570;2023-11-21T04:23:09;35.20;;;10.15;;
75220;SDS011;63802;53.232;6.570;2023-11-21T04:25:38;36.40;;;8.43;;
75220;SDS011;63802;53.232;6.570;2023-11-21T04:28:04;36.47;;;7.82;;
75220;SDS011;63802;53.232;6.570;2023-11-21T04:30:29;41.00;;;8.55;;
75220;SDS011;63802;53.232;6.570;2023-11-21T04:32:54;48.03;;;9.50;;
75220;SDS011;63802;53.232;6.570;2023-11-21T04:35:20;34.80;;;8.45;;
75220;SDS011;63802;53.232;6.570;2023-11-21T04:37:45;37.20;;;8.20;;
75220;SDS011;63802;53.232;6.570;2023-11-21T04:40:11;31.17;;;9.82;;
75220;SDS011;63802;53.232;6.570;2023-11-21T04:42:37;30.63;;;7.53;;
75220;SDS011;63802;53.232;6.570;2023-11-21T04:45:03;31.77;;;8.18;;
75220;SDS011;63802;53.232;6.570;2023-11-21T04:47:33;29.00;;;7.15;;
75220;SDS011;63802;53.232;6.570;2023-11-21T04:49:59;36.08;;;7.80;;
75220;SDS011;63802;53.232;6.570;2023-11-21T04:52:24;29.77;;;8.27;;
75220;SDS011;63802;53.232;6.570;2023-11-21T04:54:50;33.03;;;8.45;;
75220;SDS011;63802;53.232;6.570;2023-11-21T04:57:15;30.95;;;8.98;;
75220;SDS011;63802;53.232;6.570;2023-11-21T04:59:43;32.92;;;9.07;;
75220;SDS011;63802;53.232;6.570;2023-11-21T05:02:08;30.05;;;8.23;;
75220;SDS011;63802;53.232;6.570;2023-11-21T05:04:34;30.35;;;8.82;;
75220;SDS011;63802;53.232;6.570;2023-11-21T05:06:59;32.58;;;8.38;;
75220;SDS011;63802;53.232;6.570;2023-11-21T05:09:25;36.60;;;8.18;;
75220;SDS011;63802;53.232;6.570;2023-11-21T05:11:53;29.13;;;7.82;;
75220;SDS011;63802;53.232;6.570;2023-11-21T05:14:19;25.35;;;7.57;;
75220;SDS011;63802;53.232;6.570;2023-11-21T05:16:45;31.83;;;8.23;;
75220;SDS011;63802;53.232;6.570;2023-11-21T05:19:11;30.42;;;7.80;;
75220;SDS011;63802;53.232;6.570;2023-11-21T05:21:38;29.90;;;7.93;;
75220;SDS011;63802;53.232;6.570;2023-11-21T05:24:03;30.52;;;7.38;;
75220;SDS011;63802;53.232;6.570;2023-11-21T05:26:30;36.60;;;9.00;;
75220;SDS011;63802;53.232;6.570;2023-11-21T05:28:55;22.13;;;7.50;;
75220;SDS011;63802;53.232;6.570;2023-11-21T05:31:21;26.83;;;7.38;;
75220;SDS011;63802;53.232;6.570;2023-11-21T05:33:47;27.90;;;8.82;;
75220;SDS011;63802;53.232;6.570;2023-11-21T05:36:12;33.83;;;8.00;;
75220;SDS011;63802;53.232;6.570;2023-11-21T05:38:40;30.42;;;8.55;;
75220;SDS011;63802;53.232;6.570;2023-11-21T05:41:06;25.58;;;8.23;;
75220;SDS011;63802;53.232;6.570;2023-11-21T05:43:33;33.17;;;8.40;;
75220;SDS011;63802;53.232;6.570;2023-11-21T05:46:00;27.67;;;8.80;;
75220;SDS011;63802;53.232;6.570;2023-11-21T05:48:25;28.20;;;8.73;;
75220;SDS011;63802;53.232;6.570;2023-11-21T05:50:51;32.53;;;9.30;;
75220;SDS011;63802;53.232;6.570;2023-11-21T05:53:17;29.50;;;9.18;;
75220;SDS011;63802;53.232;6.570;2023-11-21T05:55:42;31.45;;;8.82;;
75220;SDS011;63802;53.232;6.570;2023-11-21T05:58:08;38.78;;;10.43;;
75220;SDS011;63802;53.232;6.570;2023-11-21T06:00:36;31.30;;;9.32;;
75220;SDS011;63802;53.232;6.570;2023-11-21T06:03:02;36.58;;;10.20;;
75220;SDS011;63802;53.232;6.570;2023-11-21T06:05:27;32.95;;;8.85;;
75220;SDS011;63802;53.232;6.570;2023-11-21T06:07:53;34.30;;;9.68;;
75220;SDS011;63802;53.232;6.570;2023-11-21T06:10:21;38.15;;;10.07;;
75220;SDS011;63802;53.232;6.570;2023-11-21T06:12:48;40.45;;;11.13;;
75220;SDS011;63802;53.232;6.570;2023-11-21T06:15:14;39.20;;;9.88;;
75220;SDS011;63802;53.232;6.570;2023-11-21T06:17:40;39.03;;;10.82;;
75220;SDS011;63802;53.232;6.570;2023-11-21T06:20:07;39.70;;;10.25;;
75220;SDS011;63802;53.232;6.570;2023-11-21T06:22:41;33.67;;;10.25;;
75220;SDS011;63802;53.232;6.570;2023-11-21T06:25:08;33.95;;;10.15;;
75220;SDS011;63802;53.232;6.570;2023-11-21T06:27:41;39.17;;;10.30;;
75220;SDS011;63802;53.232;6.570;2023-11-21T06:30:08;36.17;;;9.27;;
75220;SDS011;63802;53.232;6.570;2023-11-21T06:32:35;30.77;;;8.07;;
75220;SDS011;63802;53.232;6.570;2023-11-21T06:35:02;32.05;;;8.48;;
75220;SDS011;63802;53.232;6.570;2023-11-21T06:37:29;25.70;;;7.68;;
75220;SDS011;63802;53.232;6.570;2023-11-21T06:39:54;26.30;;;8.32;;
75220;SDS011;63802;53.232;6.570;2023-11-21T06:42:21;21.70;;;7.55;;
75220;SDS011;63802;53.232;6.570;2023-11-21T06:44:47;29.48;;;8.32;;
75220;SDS011;63802;53.232;6.570;2023-11-21T06:47:13;23.60;;;7.40;;
75220;SDS011;63802;53.232;6.570;2023-11-21T06:49:41;29.85;;;8.60;;
75220;SDS011;63802;53.232;6.570;2023-11-21T06:52:07;32.17;;;8.55;;
75220;SDS011;63802;53.232;6.570;2023-11-21T06:54:33;30.63;;;9.80;;
75220;SDS011;63802;53.232;6.570;2023-11-21T06:57:01;33.38;;;9.68;;
75220;SDS011;63802;53.232;6.570;2023-11-21T06:59:30;28.88;;;10.35;;
75220;SDS011;63802;53.232;6.570;2023-11-21T07:01:56;32.33;;;10.32;;
75220;SDS011;63802;53.232;6.570;2023-11-21T07:04:22;30.77;;;10.02;;
75220;SDS011;63802;53.232;6.570;2023-11-21T07:06:47;30.92;;;9.02;;
75220;SDS011;63802;53.232;6.570;2023-11-21T07:09:13;35.28;;;10.38;;
75220;SDS011;63802;53.232;6.570;2023-11-21T07:11:38;37.90;;;11.80;;
75220;SDS011;63802;53.232;6.570;2023-11-21T07:14:04;38.70;;;12.05;;
75220;SDS011;63802;53.232;6.570;2023-11-21T07:16:35;36.13;;;11.30;;
75220;SDS011;63802;53.232;6.570;2023-11-21T07:19:05;44.60;;;12.85;;
75220;SDS011;63802;53.232;6.570;2023-11-21T07:21:32;40.40;;;12.88;;
75220;SDS011;63802;53.232;6.570;2023-11-21T07:23:59;43.90;;;12.30;;
75220;SDS011;63802;53.232;6.570;2023-11-21T07:26:28;39.70;;;11.50;;
75220;SDS011;63802;53.232;6.570;2023-11-21T07:28:54;38.53;;;11.80;;
75220;SDS011;63802;53.232;6.570;2023-11-21T07:31:20;36.28;;;11.27;;
75220;SDS011;63802;53.232;6.570;2023-11-21T07:33:46;35.40;;;10.85;;
75220;SDS011;63802;53.232;6.570;2023-11-21T07:36:12;29.85;;;10.02;;
75220;SDS011;63802;53.232;6.570;2023-11-21T07:38:38;34.05;;;10.40;;
75220;SDS011;63802;53.232;6.570;2023-11-21T07:41:04;33.35;;;10.20;;
75220;SDS011;63802;53.232;6.570;2023-11-21T07:43:30;32.67;;;9.88;;
75220;SDS011;63802;53.232;6.570;2023-11-21T07:46:00;29.92;;;9.50;;
75220;SDS011;63802;53.232;6.570;2023-11-21T07:48:27;35.03;;;11.35;;
75220;SDS011;63802;53.232;6.570;2023-11-21T07:50:53;36.33;;;10.93;;
75220;SDS011;63802;53.232;6.570;2023-11-21T07:53:19;29.08;;;9.93;;
75220;SDS011;63802;53.232;6.570;2023-11-21T07:55:44;32.25;;;10.48;;
75220;SDS011;63802;53.232;6.570;2023-11-21T07:58:12;34.00;;;11.02;;
75220;SDS011;63802;53.232;6.570;2023-11-21T08:00:38;28.48;;;9.68;;
75220;SDS011;63802;53.232;6.570;2023-11-21T08:03:04;35.20;;;11.23;;
75220;SDS011;63802;53.232;6.570;2023-11-21T08:05:30;31.85;;;11.13;;
75220;SDS011;63802;53.232;6.570;2023-11-21T08:07:56;35.42;;;11.48;;
75220;SDS011;63802;53.232;6.570;2023-11-21T08:10:24;34.67;;;11.25;;
75220;SDS011;63802;53.232;6.570;2023-11-21T08:12:51;33.00;;;11.50;;
75220;SDS011;63802;53.232;6.570;2023-11-21T08:15:18;34.58;;;11.57;;
75220;SDS011;63802;53.232;6.570;2023-11-21T08:17:46;34.55;;;11.38;;
75220;SDS011;63802;53.232;6.570;2023-11-21T08:20:12;33.25;;;11.65;;
75220;SDS011;63802;53.232;6.570;2023-11-21T08:22:41;30.58;;;11.60;;
75220;SDS011;63802;53.232;6.570;2023-11-21T08:25:07;35.10;;;11.18;;
75220;SDS011;63802;53.232;6.570;2023-11-21T08:27:33;36.30;;;11.85;;
75220;SDS011;63802;53.232;6.570;2023-11-21T08:30:00;36.75;;;11.82;;
75220;SDS011;63802;53.232;6.570;2023-11-21T08:32:26;33.40;;;11.32;;
75220;SDS011;63802;53.232;6.570;2023-11-21T08:34:51;30.60;;;10.43;;
75220;SDS011;63802;53.232;6.570;2023-11-21T08:37:17;29.20;;;11.30;;
75220;SDS011;63802;53.232;6.570;2023-11-21T08:39:46;28.25;;;10.98;;
75220;SDS011;63802;53.232;6.570;2023-11-21T08:42:13;27.15;;;11.68;;
75220;SDS011;63802;53.232;6.570;2023-11-21T08:44:39;28.35;;;10.90;;
75220;SDS011;63802;53.232;6.570;2023-11-21T08:47:05;28.10;;;11.45;;
75220;SDS011;63802;53.232;6.570;2023-11-21T08:49:31;28.13;;;11.27;;
75220;SDS011;63802;53.232;6.570;2023-11-21T08:51:57;30.33;;;11.32;;
75220;SDS011;63802;53.232;6.570;2023-11-21T08:54:24;27.67;;;11.20;;
75220;SDS011;63802;53.232;6.570;2023-11-21T08:56:50;27.20;;;10.48;;
75220;SDS011;63802;53.232;6.570;2023-11-21T08:59:17;21.15;;;9.73;;
75220;SDS011;63802;53.232;6.570;2023-11-21T09:01:42;23.10;;;9.48;;
75220;SDS011;63802;53.232;6.570;2023-11-21T09:04:10;21.10;;;9.25;;
75220;SDS011;63802;53.232;6.570;2023-11-21T09:06:36;20.67;;;8.65;;
75220;SDS011;63802;53.232;6.570;2023-11-21T09:09:02;21.60;;;9.32;;
75220;SDS011;63802;53.232;6.570;2023-11-21T09:11:29;18.17;;;8.10;;
75220;SDS011;63802;53.232;6.570;2023-11-21T09:13:58;17.60;;;8.18;;
75220;SDS011;63802;53.232;6.570;2023-11-21T09:16:27;18.50;;;9.35;;
75220;SDS011;63802;53.232;6.570;2023-11-21T09:18:54;23.98;;;9.38;;
75220;SDS011;63802;53.232;6.570;2023-11-21T09:21:20;19.50;;;9.23;;
75220;SDS011;63802;53.232;6.570;2023-11-21T09:23:45;21.90;;;9.25;;
75220;SDS011;63802;53.232;6.570;2023-11-21T09:26:11;19.95;;;8.85;;
75220;SDS011;63802;53.232;6.570;2023-11-21T09:28:36;17.95;;;8.18;;
75220;SDS011;63802;53.232;6.570;2023-11-21T09:31:07;21.88;;;8.20;;
75220;SDS011;63802;53.232;6.570;2023-11-21T09:33:34;18.40;;;8.57;;
75220;SDS011;63802;53.232;6.570;2023-11-21T09:36:00;19.10;;;8.52;;
75220;SDS011;63802;53.232;6.570;2023-11-21T09:38:26;20.25;;;8.70;;
75220;SDS011;63802;53.232;6.570;2023-11-21T09:40:53;18.30;;;7.80;;
75220;SDS011;63802;53.232;6.570;2023-11-21T09:43:20;17.45;;;7.68;;
75220;SDS011;63802;53.232;6.570;2023-11-21T09:45:47;16.00;;;7.57;;
75220;SDS011;63802;53.232;6.570;2023-11-21T09:48:18;15.90;;;7.00;;
75220;SDS011;63802;53.232;6.570;2023-11-21T09:50:45;16.23;;;6.53;;
75220;SDS011;63802;53.232;6.570;2023-11-21T09:53:16;16.88;;;7.50;;
75220;SDS011;63802;53.232;6.570;2023-11-21T09:55:46;14.90;;;6.90;;
75220;SDS011;63802;53.232;6.570;2023-11-21T09:58:13;13.07;;;6.28;;
75220;SDS011;63802;53.232;6.570;2023-11-21T10:00:41;16.65;;;6.80;;
75220;SDS011;63802;53.232;6.570;2023-11-21T10:05:37;11.98;;;5.35;;
75220;SDS011;63802;53.232;6.570;2023-11-21T10:08:04;13.88;;;5.60;;
75220;SDS011;63802;53.232;6.570;2023-11-21T10:10:33;12.82;;;6.20;;
75220;SDS011;63802;53.232;6.570;2023-11-21T10:13:01;15.70;;;6.28;;
75220;SDS011;63802;53.232;6.570;2023-11-21T10:15:32;14.75;;;5.93;;
75220;SDS011;63802;53.232;6.570;2023-11-21T10:18:00;16.77;;;6.40;;
75220;SDS011;63802;53.232;6.570;2023-11-21T10:20:31;13.93;;;6.13;;
75220;SDS011;63802;53.232;6.570;2023-11-21T10:22:58;18.90;;;6.10;;
75220;SDS011;63802;53.232;6.570;2023-11-21T10:25:27;14.60;;;5.88;;
75220;SDS011;63802;53.232;6.570;2023-11-21T10:27:57;14.98;;;5.85;;
75220;SDS011;63802;53.232;6.570;2023-11-21T10:30:35;11.95;;;5.90;;
75220;SDS011;63802;53.232;6.570;2023-11-21T10:33:06;13.35;;;5.68;;
75220;SDS011;63802;53.232;6.570;2023-11-21T10:38:07;14.25;;;5.40;;
75220;SDS011;63802;53.232;6.570;2023-11-21T10:40:37;10.88;;;5.47;;
75220;SDS011;63802;53.232;6.570;2023-11-21T10:43:07;12.68;;;5.43;;
75220;SDS011;63802;53.232;6.570;2023-11-21T10:45:34;12.15;;;5.10;;
75220;SDS011;63802;53.232;6.570;2023-11-21T10:48:04;12.38;;;5.50;;
75220;SDS011;63802;53.232;6.570;2023-11-21T10:50:30;13.32;;;6.05;;
75220;SDS011;63802;53.232;6.570;2023-11-21T10:52:58;11.27;;;5.25;;
75220;SDS011;63802;53.232;6.570;2023-11-21T10:55:23;12.35;;;5.00;;
75220;SDS011;63802;53.232;6.570;2023-11-21T10:57:52;13.48;;;5.70;;
75220;SDS011;63802;53.232;6.570;2023-11-21T11:00:19;11.80;;;5.68;;
75220;SDS011;63802;53.232;6.570;2023-11-21T11:02:51;13.00;;;6.00;;
75220;SDS011;63802;53.232;6.570;2023-11-21T11:05:19;11.65;;;6.00;;
75220;SDS011;63802;53.232;6.570;2023-11-21T11:07:45;15.18;;;5.13;;
75220;SDS011;63802;53.232;6.570;2023-11-21T11:10:19;12.18;;;5.85;;
75220;SDS011;63802;53.232;6.570;2023-11-21T11:12:47;13.60;;;5.10;;
75220;SDS011;63802;53.232;6.570;2023-11-21T11:15:14;12.63;;;5.57;;
75220;SDS011;63802;53.232;6.570;2023-11-21T11:17:41;13.50;;;5.45;;
75220;SDS011;63802;53.232;6.570;2023-11-21T11:20:09;12.20;;;5.22;;
75220;SDS011;63802;53.232;6.570;2023-11-21T11:22:42;12.90;;;5.72;;
75220;SDS011;63802;53.232;6.570;2023-11-21T11:25:30;12.65;;;5.47;;
75220;SDS011;63802;53.232;6.570;2023-11-21T11:28:10;12.63;;;5.35;;
75220;SDS011;63802;53.232;6.570;2023-11-21T11:38:13;9.77;;;4.35;;
75220;SDS011;63802;53.232;6.570;2023-11-21T11:40:46;12.43;;;5.45;;
75220;SDS011;63802;53.232;6.570;2023-11-21T11:43:12;11.32;;;5.15;;
75220;SDS011;63802;53.232;6.570;2023-11-21T11:45:38;11.70;;;5.28;;
75220;SDS011;63802;53.232;6.570;2023-11-21T11:48:07;10.90;;;4.57;;
75220;SDS011;63802;53.232;6.570;2023-11-21T11:50:33;12.95;;;5.05;;
75220;SDS011;63802;53.232;6.570;2023-11-21T11:53:12;10.80;;;5.00;;
75220;SDS011;63802;53.232;6.570;2023-11-21T11:55:39;10.27;;;4.95;;
75220;SDS011;63802;53.232;6.570;2023-11-21T11:58:08;9.93;;;4.78;;
75220;SDS011;63802;53.232;6.570;2023-11-21T12:00:34;10.38;;;4.35;;
75220;SDS011;63802;53.232;6.570;2023-11-21T12:03:03;11.50;;;5.00;;
75220;SDS011;63802;53.232;6.570;2023-11-21T12:05:31;10.27;;;4.30;;
75220;SDS011;63802;53.232;6.570;2023-11-21T12:07:58;8.75;;;4.10;;
75220;SDS011;63802;53.232;6.570;2023-11-21T12:10:32;13.10;;;4.95;;
75220;SDS011;63802;53.232;6.570;2023-11-21T12:15:26;13.55;;;5.07;;
75220;SDS011;63802;53.232;6.570;2023-11-21T12:17:54;15.43;;;5.13;;
75220;SDS011;63802;53.232;6.570;2023-11-21T12:20:20;9.48;;;4.40;;
75220;SDS011;63802;53.232;6.570;2023-11-21T12:25:20;12.52;;;5.50;;
75220;SDS011;63802;53.232;6.570;2023-11-21T12:27:47;10.52;;;4.80;;
75220;SDS011;63802;53.232;6.570;2023-11-21T12:30:17;12.30;;;4.97;;
75220;SDS011;63802;53.232;6.570;2023-11-21T12:32:44;11.98;;;5.38;;
75220;SDS011;63802;53.232;6.570;2023-11-21T12:35:12;11.38;;;5.28;;
75220;SDS011;63802;53.232;6.570;2023-11-21T12:37:39;10.23;;;4.35;;
75220;SDS011;63802;53.232;6.570;2023-11-21T12:40:09;13.05;;;5.03;;
75220;SDS011;63802;53.232;6.570;2023-11-21T12:42:44;11.38;;;5.07;;
75220;SDS011;63802;53.232;6.570;2023-11-21T12:50:20;10.02;;;4.88;;
75220;SDS011;63802;53.232;6.570;2023-11-21T12:52:49;13.00;;;4.60;;
75220;SDS011;63802;53.232;6.570;2023-11-21T12:55:23;12.65;;;5.53;;
75220;SDS011;63802;53.232;6.570;2023-11-21T12:57:49;10.73;;;5.40;;
75220;SDS011;63802;53.232;6.570;2023-11-21T13:00:19;11.93;;;5.07;;
75220;SDS011;63802;53.232;6.570;2023-11-21T13:02:52;13.00;;;5.50;;
75220;SDS011;63802;53.232;6.570;2023-11-21T13:05:26;10.82;;;5.10;;
75220;SDS011;63802;53.232;6.570;2023-11-21T13:07:53;12.30;;;5.05;;
75220;SDS011;63802;53.232;6.570;2023-11-21T13:10:21;11.10;;;4.63;;
75220;SDS011;63802;53.232;6.570;2023-11-21T13:12:52;10.25;;;4.47;;
75220;SDS011;63802;53.232;6.570;2023-11-21T13:15:18;11.68;;;5.10;;
75220;SDS011;63802;53.232;6.570;2023-11-21T13:17:44;10.27;;;4.57;;
75220;SDS011;63802;53.232;6.570;2023-11-21T13:20:11;14.48;;;4.85;;
75220;SDS011;63802;53.232;6.570;2023-11-21T13:25:13;9.43;;;4.28;;
75220;SDS011;63802;53.232;6.570;2023-11-21T13:27:43;11.27;;;4.87;;
75220;SDS011;63802;53.232;6.570;2023-11-21T13:30:10;10.18;;;4.80;;
75220;SDS011;63802;53.232;6.570;2023-11-21T13:32:40;10.20;;;4.40;;
75220;SDS011;63802;53.232;6.570;2023-11-21T13:35:06;9.32;;;4.50;;
75220;SDS011;63802;53.232;6.570;2023-11-21T13:37:39;9.55;;;4.13;;
75220;SDS011;63802;53.232;6.570;2023-11-21T13:40:05;8.50;;;3.90;;
75220;SDS011;63802;53.232;6.570;2023-11-21T13:42:39;10.55;;;3.92;;
75220;SDS011;63802;53.232;6.570;2023-11-21T13:45:06;9.30;;;4.40;;
75220;SDS011;63802;53.232;6.570;2023-11-21T13:47:34;10.63;;;4.85;;
75220;SDS011;63802;53.232;6.570;2023-11-21T13:50:01;8.23;;;3.90;;
75220;SDS011;63802;53.232;6.570;2023-11-21T13:52:28;9.18;;;4.32;;
75220;SDS011;63802;53.232;6.570;2023-11-21T13:57:24;9.55;;;3.85;;
75220;SDS011;63802;53.232;6.570;2023-11-21T13:59:49;11.48;;;4.38;;
75220;SDS011;63802;53.232;6.570;2023-11-21T14:02:16;11.23;;;4.72;;
75220;SDS011;63802;53.232;6.570;2023-11-21T14:04:53;8.73;;;4.07;;
75220;SDS011;63802;53.232;6.570;2023-11-21T14:07:20;7.97;;;3.53;;
75220;SDS011;63802;53.232;6.570;2023-11-21T14:10:01;8.02;;;3.95;;
75220;SDS011;63802;53.232;6.570;2023-11-21T14:12:28;9.68;;;4.30;;
75220;SDS011;63802;53.232;6.570;2023-11-21T14:14:59;8.32;;;3.95;;
75220;SDS011;63802;53.232;6.570;2023-11-21T14:17:25;10.65;;;3.92;;
75220;SDS011;63802;53.232;6.570;2023-11-21T14:19:50;7.65;;;3.67;;
75220;SDS011;63802;53.232;6.570;2023-11-21T14:22:16;9.45;;;3.95;;
75220;SDS011;63802;53.232;6.570;2023-11-21T14:24:42;8.65;;;4.05;;
75220;SDS011;63802;53.232;6.570;2023-11-21T14:27:12;7.75;;;4.07;;
75220;SDS011;63802;53.232;6.570;2023-11-21T14:29:38;10.75;;;4.43;;
75220;SDS011;63802;53.232;6.570;2023-11-21T14:32:07;10.98;;;3.97;;
75220;SDS011;63802;53.232;6.570;2023-11-21T14:34:33;8.35;;;3.85;;
75220;SDS011;63802;53.232;6.570;2023-11-21T14:36:58;8.13;;;3.85;;
75220;SDS011;63802;53.232;6.570;2023-11-21T14:39:23;8.25;;;3.75;;
75220;SDS011;63802;53.232;6.570;2023-11-21T14:41:52;7.93;;;3.75;;
75220;SDS011;63802;53.232;6.570;2023-11-21T14:44:20;8.60;;;3.93;;
75220;SDS011;63802;53.232;6.570;2023-11-21T14:46:51;8.18;;;3.97;;
75220;SDS011;63802;53.232;6.570;2023-11-21T14:49:17;9.73;;;3.63;;
75220;SDS011;63802;53.232;6.570;2023-11-21T14:51:50;11.55;;;3.53;;
75220;SDS011;63802;53.232;6.570;2023-11-21T14:54:29;8.80;;;3.15;;
75220;SDS011;63802;53.232;6.570;2023-11-21T14:57:05;8.68;;;3.88;;
75220;SDS011;63802;53.232;6.570;2023-11-21T14:59:36;8.30;;;3.92;;
75220;SDS011;63802;53.232;6.570;2023-11-21T15:02:02;7.88;;;3.65;;